This is the latest recevied weather packets stored in our database for station/object S53BL-10. If no packets are shown the sender has not sent any weather packets the latest 10 day(s).
| Time | Temp. | Humidity | Pressure | Rain* | Wind** | Luminosity | Snow |
|---|---|---|---|---|---|---|---|
| 1777083591 | 7.78° C | 78% | 1013.8 hPa | - | - | - | - |
| 1777082690 | 8.33° C | 76% | 1013.8 hPa | - | - | - | - |
| 1777081789 | 8.33° C | 77% | 1013.7 hPa | - | - | - | - |
| 1777080888 | 8.33° C | 76% | 1013.6 hPa | - | - | - | - |
| 1777079987 | 8.89° C | 73% | 1013.5 hPa | - | - | - | - |
| 1777079086 | 8.89° C | 73% | 1013.6 hPa | - | - | - | - |
| 1777078186 | 9.44° C | 72% | 1013.6 hPa | - | - | - | - |
| 1777077285 | 9.44° C | 73% | 1013.5 hPa | - | - | - | - |
| 1777076384 | 9.44° C | 72% | 1013.6 hPa | - | - | - | - |
| 1777075483 | 10° C | 71% | 1013.5 hPa | - | - | - | - |
| 1777074582 | 10° C | 69% | 1013.5 hPa | - | - | - | - |
| 1777073682 | 10.56° C | 67% | 1013.6 hPa | - | - | - | - |
| 1777072781 | 10.56° C | 66% | 1013.6 hPa | - | - | - | - |
| 1777071880 | 10.56° C | 65% | 1013.7 hPa | - | - | - | - |
| 1777070979 | 11.11° C | 63% | 1013.6 hPa | - | - | - | - |
| 1777070079 | 11.67° C | 59% | 1013.6 hPa | - | - | - | - |
| 1777069178 | 11.67° C | 58% | 1013.6 hPa | - | - | - | - |
| 1777068277 | 12.22° C | 57% | 1013.5 hPa | - | - | - | - |
| 1777067376 | 12.22° C | 57% | 1013.5 hPa | - | - | - | - |
| 1777066475 | 12.78° C | 56% | 1013.3 hPa | - | - | - | - |
| 1777065575 | 13.33° C | 51% | 1013.3 hPa | - | - | - | - |
| 1777064674 | 13.89° C | 51% | 1013.1 hPa | - | - | - | - |
| 1777063773 | 14.44° C | 46% | 1013.1 hPa | - | - | - | - |
| 1777062872 | 14.44° C | 45% | 1012.8 hPa | - | - | - | - |
| 1777061971 | 14.44° C | 43% | 1012.7 hPa | - | - | - | - |
* Rain since midnight (hover to see other rain measurements)
** Current wind speed in m/s (hover to see current wind gust speed)